Penticton Airport
CYYF : now visible

Airfield :











YOU CAN JOIN US ON...

 
LOGIN :

Register | Disclaimer

   EN    FR    IT 

 









Legend :    VFR   Marginal VFR   IFR   Intensive IFR   Very Intensive IFR
Visi :
Ceiling :
>= 8 km
>= 3000ft
5 to 8 km
1000 to 3000 ft
1500m to 5 km
500 to 1000 ft
800 to 1500m
200 to 500 ft
< 800m
< 200 ft
Symbols :   Thunderstorms  Fog  Heavy snow  Heavy precipitations  Wind > 20 kt






- Airport Elevation : 1129 ft
- IATA code : YYF


CYYF - Penticton

CURRENT METAR :
  • 290300Z 19012KT 15SM FEW060 BKN090 BKN120 11/02 A2972 RMK SC2AC3AC2 SLP072 DENSITY ALT 1200FT

EXPIRED METARs :
  • 290200Z 17013G19KT 15SM VCSH SCT055 BKN090 OVC110 13/01 A2974 RMK SC4ACC3AC1 SLP077 DENSITY ALT 1400FT
  • 290100Z 16015G23KT 15SM -SHRA BKN050 OVC075 12/01 A2974 RMK SC6ACC2 SLP079 DENSITY ALT 1300FT

TAF TAF CYYF
Valid from the 29 at 01:00 until the 29 at 13:00 UTC


290038Z 2901/2913 18015G25KT P6SM SCT060 BKN080
TEMPO 2901/2913 5SM -SHRA BR BKN050
BECMG 2904/2906 18018G28KT RMK NXT FCST BY 290700Z



MET'MAP, your aeronautical weather chart ! - Copyright ORBIFLY December 2007 - Disclaimer

ORBIFLY MET'MAP TEAM :

Programming & Development : Alexandra Zaïnal
Concept & original design : Baudouin d'Aumeries
Assistance for programming : Marc-Olivier Méhu
Technical & hardware support : Manuel Goepfert

Contact : metmap@orbifly.com




SOURCES & CREDITS :

   NOAA       Earth
Advisory